KAQW/AQW METAR and TAF weather

Enter ICAO airport designator
Station Type Date Time Source
KAQW METAR 2022/06/30 12:52 UTC NOAA

KAQW 301252Z AUTO 00000KT 10SM CLR 22/14 A3024 RMK AO2 SLP236 T02170139


Station Type Date Time Source
KAQW Decoded METAR 2022/06/30 12:52 UTC NOAA

N ADAMS HARRIMAN-AND-WEST, MA, United States (KAQW) 42-42N 073-10W 201M
Jun 30, 2022 - 08:52 AM EDT / 2022.06.30 1252 UTC
Wind: Calm:0
Visibility: 10 mile(s):0
Sky conditions: clear
Temperature: 71.1 F (21.7 C)
Dew Point: 57.0 F (13.9 C)
Relative Humidity: 61%
Pressure (altimeter): 30.24 in. Hg (1024 hPa)
ob: KAQW 301252Z AUTO 00000KT 10SM CLR 22/14 A3024 RMK AO2 SLP236 T02170139
cycle: 13

Station Type Date Time Source
KAQW TAF UTC NOAA

Error!

Example: see airport list